createdAt,value
2019-01-20T00:02:22.221Z,18.30
2019-01-20T00:05:26.216Z,20.23
2019-01-20T00:08:30.202Z,22.17
2019-01-20T00:11:34.028Z,21.57
2019-01-20T00:14:37.919Z,18.40
2019-01-20T00:17:41.824Z,19.67
2019-01-20T00:20:45.620Z,17.93
2019-01-20T00:23:49.462Z,17.47
2019-01-20T00:26:53.251Z,17.80
2019-01-20T00:29:57.092Z,20.33
2019-01-20T00:33:00.890Z,19.33
2019-01-20T00:36:04.809Z,18.47
2019-01-20T00:39:09.687Z,18.30
2019-01-20T00:42:13.553Z,17.80
2019-01-20T00:45:17.625Z,17.57
2019-01-20T00:48:21.545Z,18.47
2019-01-20T00:51:25.808Z,17.90
2019-01-20T00:54:29.617Z,18.07
2019-01-20T00:57:33.521Z,18.20
2019-01-20T01:00:37.474Z,19.77
2019-01-20T01:03:41.305Z,19.80
2019-01-20T01:06:45.193Z,19.87
2019-01-20T01:09:49.111Z,18.23
2019-01-20T01:12:53.285Z,18.67
2019-01-20T01:15:57.120Z,17.97
2019-01-20T01:19:01.010Z,18.47
2019-01-20T01:22:04.912Z,17.70
2019-01-20T01:25:10.429Z,17.87
2019-01-20T01:28:14.323Z,19.67
2019-01-20T01:31:18.149Z,18.87
2019-01-20T01:34:22.056Z,19.17
2019-01-20T01:37:25.939Z,18.40
2019-01-20T01:40:29.783Z,20.57
2019-01-20T01:43:33.598Z,21.27
2019-01-20T01:46:37.415Z,18.73
2019-01-20T01:49:41.221Z,19.37
2019-01-20T01:52:45.200Z,20.10
2019-01-20T01:55:49.159Z,20.53
2019-01-20T01:58:53.107Z,19.00
2019-01-20T02:01:56.929Z,19.77
2019-01-20T02:05:00.735Z,19.07
2019-01-20T02:08:04.698Z,17.77
2019-01-20T02:11:08.618Z,17.40
2019-01-20T02:14:12.589Z,17.53
2019-01-20T02:17:16.484Z,17.63
2019-01-20T02:20:22.580Z,17.70
2019-01-20T02:23:26.384Z,17.93
2019-01-20T02:26:30.311Z,17.97
2019-01-20T02:29:34.202Z,17.43
2019-01-20T02:32:38.218Z,17.77
2019-01-20T02:35:42.046Z,18.83
2019-01-20T02:38:45.884Z,18.10
2019-01-20T02:41:55.050Z,17.90
2019-01-20T02:44:55.257Z,18.83
2019-01-20T02:47:59.075Z,17.37
2019-01-20T02:51:02.894Z,18.43
2019-01-20T02:54:06.801Z,19.50
2019-01-20T02:57:10.622Z,18.67
2019-01-20T03:00:17.611Z,18.80
2019-01-20T03:03:21.422Z,18.73
2019-01-20T03:06:25.319Z,18.30
2019-01-20T03:09:29.153Z,19.20
2019-01-20T03:12:33.031Z,17.50
2019-01-20T03:15:36.908Z,18.53
2019-01-20T03:18:40.887Z,19.33
2019-01-20T03:21:44.778Z,18.20
2019-01-20T03:24:48.639Z,18.60
2019-01-20T03:27:52.528Z,18.70
2019-01-20T03:30:56.386Z,18.50
2019-01-20T03:34:00.260Z,18.53
2019-01-20T03:37:04.321Z,19.60
2019-01-20T03:40:09.885Z,18.67
2019-01-20T03:43:13.685Z,16.60
2019-01-20T03:46:17.494Z,19.03
2019-01-20T03:49:21.304Z,16.80
2019-01-20T03:52:25.210Z,19.23
2019-01-20T03:55:29.079Z,19.30
2019-01-20T03:58:32.968Z,18.17
2019-01-20T04:01:36.865Z,18.37
2019-01-20T04:04:40.735Z,18.30
2019-01-20T04:07:44.721Z,19.13
2019-01-20T04:10:48.543Z,20.40
2019-01-20T04:13:52.407Z,19.10
2019-01-20T04:16:56.280Z,19.97
2019-01-20T04:20:00.386Z,19.30
2019-01-20T04:23:04.380Z,19.03
2019-01-20T04:26:08.256Z,18.27
2019-01-20T04:29:12.069Z,19.17
2019-01-20T04:32:15.921Z,18.93
2019-01-20T04:35:20.034Z,19.03
2019-01-20T04:38:23.931Z,18.83
2019-01-20T04:41:27.863Z,19.20
2019-01-20T04:44:31.697Z,19.53
2019-01-20T04:47:35.699Z,19.90
2019-01-20T04:50:39.575Z,19.00
2019-01-20T04:53:43.790Z,19.07
2019-01-20T04:56:47.691Z,19.70
2019-01-20T04:59:51.511Z,19.23
2019-01-20T05:02:55.402Z,18.97
2019-01-20T05:05:59.391Z,18.57
2019-01-20T05:09:04.081Z,19.30
2019-01-20T05:12:08.028Z,18.80
2019-01-20T05:15:14.594Z,18.33
2019-01-20T05:18:18.430Z,19.37
2019-01-20T05:21:22.308Z,20.63
2019-01-20T05:24:26.227Z,19.97
2019-01-20T05:27:30.105Z,18.97
2019-01-20T05:30:34.019Z,19.37
2019-01-20T05:33:37.858Z,20.10
2019-01-20T05:36:41.660Z,19.03
2019-01-20T05:39:45.501Z,20.87
2019-01-20T05:42:49.320Z,20.63
2019-01-20T05:45:53.180Z,19.33
2019-01-20T05:48:57.052Z,18.80
2019-01-20T05:52:00.909Z,20.33
2019-01-20T05:55:05.338Z,18.63
2019-01-20T05:58:09.154Z,19.03
2019-01-20T06:01:12.950Z,19.33
2019-01-20T06:04:16.790Z,17.90
2019-01-20T06:07:20.672Z,19.23
2019-01-20T06:10:24.669Z,19.03
2019-01-20T06:13:28.487Z,18.97
2019-01-20T06:16:32.388Z,19.40
2019-01-20T06:19:36.200Z,20.10
2019-01-20T06:22:40.098Z,19.30
2019-01-20T06:25:43.914Z,18.77
2019-01-20T06:28:47.733Z,18.27
2019-01-20T06:31:51.572Z,19.33
2019-01-20T06:34:55.408Z,19.03
2019-01-20T06:37:59.215Z,18.83
2019-01-20T06:41:03.031Z,19.53
2019-01-20T06:44:06.855Z,19.07
2019-01-20T06:47:10.671Z,19.63
2019-01-20T06:50:15.127Z,19.67
2019-01-20T06:53:18.943Z,19.50
2019-01-20T06:56:22.802Z,18.50
2019-01-20T06:59:26.620Z,20.27
2019-01-20T07:02:30.614Z,20.03
2019-01-20T07:05:34.572Z,21.33
2019-01-20T07:08:38.424Z,21.23
2019-01-20T07:11:42.227Z,20.77
2019-01-20T07:14:46.136Z,21.20
2019-01-20T07:17:50.109Z,20.27
2019-01-20T07:20:53.936Z,20.57
2019-01-20T07:23:57.753Z,20.47
2019-01-20T07:27:01.589Z,20.23
2019-01-20T07:30:07.913Z,20.43
2019-01-20T07:33:11.808Z,21.50
2019-01-20T07:36:15.659Z,20.57
2019-01-20T07:39:19.478Z,20.77
2019-01-20T07:42:23.315Z,20.93
2019-01-20T07:45:27.113Z,27.27
2019-01-20T07:48:30.973Z,24.40
2019-01-20T07:51:34.792Z,22.23
2019-01-20T07:54:38.634Z,23.03
2019-01-20T07:57:42.617Z,22.10
2019-01-20T08:00:46.462Z,22.13
2019-01-20T08:03:50.274Z,21.77
2019-01-20T08:06:54.218Z,19.90
2019-01-20T08:09:58.037Z,21.80
2019-01-20T08:13:01.859Z,22.30
2019-01-20T08:16:05.912Z,21.83
2019-01-20T08:19:09.868Z,22.97
2019-01-20T08:22:13.760Z,21.70
2019-01-20T08:25:18.307Z,23.20
2019-01-20T08:28:22.208Z,22.57
2019-01-20T08:31:26.208Z,23.63
2019-01-20T08:34:30.006Z,23.93
2019-01-20T08:37:34.396Z,22.73
2019-01-20T08:40:38.422Z,21.57
2019-01-20T08:43:42.268Z,22.73
2019-01-20T08:47:11.198Z,21.63
2019-01-20T08:50:16.940Z,23.57
2019-01-20T08:53:20.873Z,26.07
2019-01-20T08:56:24.718Z,25.07
2019-01-20T08:59:28.660Z,24.57
2019-01-20T09:02:32.585Z,24.00
2019-01-20T09:05:36.498Z,26.47
2019-01-20T09:08:40.413Z,25.23
2019-01-20T09:11:44.299Z,25.50
2019-01-20T09:14:48.207Z,26.13
2019-01-20T09:17:52.153Z,25.53
2019-01-20T09:20:56.067Z,26.23
2019-01-20T09:23:59.930Z,25.63
2019-01-20T09:27:03.896Z,26.83
2019-01-20T09:30:12.045Z,26.87
2019-01-20T09:33:15.900Z,26.00
2019-01-20T09:36:19.789Z,26.90
2019-01-20T09:39:23.687Z,27.03
2019-01-20T09:42:27.595Z,26.13
2019-01-20T09:45:31.570Z,26.00
2019-01-20T09:48:35.471Z,27.13
2019-01-20T09:51:39.393Z,25.97
2019-01-20T09:54:43.294Z,26.47
2019-01-20T09:57:47.170Z,27.10
2019-01-20T10:00:50.999Z,26.33
2019-01-20T10:03:54.796Z,27.07
2019-01-20T10:06:58.595Z,25.80
2019-01-20T10:10:02.413Z,25.93
2019-01-20T10:13:06.303Z,27.47
2019-01-20T10:16:10.148Z,27.63
2019-01-20T10:19:14.032Z,25.60
2019-01-20T10:22:17.936Z,27.57
2019-01-20T10:25:21.754Z,25.83
2019-01-20T10:28:26.865Z,26.50
2019-01-20T10:31:30.687Z,27.00
2019-01-20T10:34:34.962Z,26.90
2019-01-20T10:37:39.176Z,26.60
2019-01-20T10:40:42.994Z,25.07
2019-01-20T10:43:46.825Z,27.50
2019-01-20T10:46:50.647Z,27.07
2019-01-20T10:49:54.522Z,23.83
2019-01-20T10:52:58.418Z,25.40
2019-01-20T10:56:02.243Z,24.67
2019-01-20T10:59:06.608Z,28.57
2019-01-20T11:02:10.617Z,26.50
2019-01-20T11:05:14.726Z,22.63
2019-01-20T11:08:18.559Z,22.40
2019-01-20T11:11:22.460Z,22.33
2019-01-20T11:14:26.280Z,23.33
2019-01-20T11:17:30.099Z,22.20
2019-01-20T11:20:33.924Z,24.00
2019-01-20T11:23:37.969Z,23.83
2019-01-20T11:26:41.785Z,24.93
2019-01-20T11:29:45.667Z,24.10
2019-01-20T11:32:49.557Z,26.10
2019-01-20T11:35:53.366Z,23.17
2019-01-20T11:38:57.203Z,24.00
2019-01-20T11:42:01.015Z,23.70
2019-01-20T11:45:06.249Z,22.47
2019-01-20T11:48:10.231Z,22.63
2019-01-20T11:51:14.151Z,22.10
2019-01-20T11:54:17.950Z,23.60
2019-01-20T11:57:21.795Z,24.87
2019-01-20T12:00:31.153Z,22.60
2019-01-20T12:03:35.033Z,22.97
2019-01-20T12:06:38.957Z,31.07
2019-01-20T12:09:42.856Z,25.03
2019-01-20T12:12:51.626Z,23.07
2019-01-20T12:15:55.511Z,22.70
2019-01-20T12:18:59.382Z,22.27
2019-01-20T12:22:03.358Z,21.17
2019-01-20T12:25:10.959Z,21.80
2019-01-20T12:28:14.770Z,21.23
2019-01-20T12:31:18.672Z,21.33
2019-01-20T12:34:22.500Z,22.23
2019-01-20T12:37:26.340Z,22.23
2019-01-20T12:40:33.430Z,21.57
2019-01-20T12:43:37.272Z,22.87
2019-01-20T12:46:41.157Z,20.63
2019-01-20T12:49:45.000Z,20.50
2019-01-20T12:52:48.924Z,19.70
2019-01-20T12:55:52.757Z,19.60
2019-01-20T12:58:56.795Z,20.17
2019-01-20T13:02:00.662Z,21.27
2019-01-20T13:05:05.686Z,20.77
2019-01-20T13:08:09.709Z,30.80
2019-01-20T13:11:13.685Z,49.87
2019-01-20T13:14:19.173Z,22.03
2019-01-20T13:17:23.079Z,19.10
2019-01-20T13:20:27.100Z,17.93
2019-01-20T13:23:30.907Z,15.40
2019-01-20T13:26:34.804Z,15.67
2019-01-20T13:29:38.610Z,14.63
2019-01-20T13:32:42.522Z,16.30
2019-01-20T13:35:46.344Z,17.30
2019-01-20T13:38:50.282Z,15.93
2019-01-20T13:41:54.099Z,15.60
2019-01-20T13:44:57.939Z,14.83
2019-01-20T13:48:01.876Z,15.97
2019-01-20T13:51:05.889Z,15.73
2019-01-20T13:54:09.783Z,18.07
2019-01-20T13:57:13.647Z,15.53
2019-01-20T14:00:19.844Z,17.70
2019-01-20T14:03:23.835Z,18.77
2019-01-20T14:06:27.824Z,15.70
2019-01-20T14:09:31.693Z,15.70
2019-01-20T14:12:35.504Z,15.97
2019-01-20T14:15:39.429Z,16.43
2019-01-20T14:18:45.410Z,16.23
2019-01-20T14:21:48.805Z,15.93
2019-01-20T14:24:52.614Z,13.80
2019-01-20T14:27:56.588Z,14.30
2019-01-20T14:31:00.459Z,13.20
2019-01-20T14:34:04.357Z,13.03
2019-01-20T14:37:08.245Z,11.50
2019-01-20T14:40:13.465Z,12.13
2019-01-20T14:43:17.350Z,12.50
2019-01-20T14:46:21.149Z,18.80
2019-01-20T14:49:24.975Z,14.27
2019-01-20T14:52:28.786Z,26.90
2019-01-20T14:55:32.601Z,15.97
2019-01-20T14:58:36.496Z,14.80
2019-01-20T15:01:40.325Z,14.13
2019-01-20T15:04:44.236Z,13.53
2019-01-20T15:07:48.101Z,13.87
2019-01-20T15:10:51.921Z,15.20
2019-01-20T15:13:55.736Z,14.13
2019-01-20T15:17:01.011Z,13.73
2019-01-20T15:20:06.512Z,13.50
2019-01-20T15:23:10.460Z,13.13
2019-01-20T15:26:14.278Z,14.33
2019-01-20T15:29:18.175Z,13.63
2019-01-20T15:32:22.106Z,13.83
2019-01-20T15:35:25.932Z,14.30
2019-01-20T15:38:29.864Z,13.53
2019-01-20T15:41:33.708Z,12.93
2019-01-20T15:44:37.527Z,12.83
2019-01-20T15:47:41.393Z,11.97
2019-01-20T15:50:45.315Z,13.33
2019-01-20T15:53:49.107Z,13.47
2019-01-20T15:56:52.927Z,13.93
2019-01-20T15:59:56.837Z,12.37
2019-01-20T16:03:00.840Z,13.83
2019-01-20T16:06:04.806Z,12.93
2019-01-20T16:09:09.929Z,13.20
2019-01-20T16:12:13.944Z,13.97
2019-01-20T16:15:24.589Z,13.90
2019-01-20T16:18:25.956Z,15.47
2019-01-20T16:21:29.875Z,14.73
2019-01-20T16:24:33.811Z,15.73
2019-01-20T16:27:37.918Z,15.93
2019-01-20T16:30:42.685Z,20.30
2019-01-20T16:33:46.544Z,24.77
2019-01-20T16:36:50.511Z,26.93
2019-01-20T16:39:54.518Z,27.23
2019-01-20T16:42:58.370Z,27.07
2019-01-20T16:46:02.154Z,31.53
2019-01-20T16:49:06.153Z,29.60
2019-01-20T16:52:10.795Z,28.53
2019-01-20T16:55:15.048Z,29.27
2019-01-20T16:58:18.944Z,27.37
2019-01-20T17:01:22.759Z,29.50
2019-01-20T17:04:26.661Z,29.33
2019-01-20T17:07:30.476Z,23.73
2019-01-20T17:10:36.950Z,24.17
2019-01-20T17:13:41.421Z,20.83
2019-01-20T17:16:45.301Z,18.37
2019-01-20T17:19:49.214Z,18.47
2019-01-20T17:22:53.348Z,18.00
2019-01-20T17:25:57.180Z,16.17
2019-01-20T17:29:01.030Z,16.90
2019-01-20T17:32:05.084Z,17.67
2019-01-20T17:35:10.140Z,17.27
2019-01-20T17:38:14.004Z,16.70
2019-01-20T17:41:17.855Z,16.90
2019-01-20T17:44:21.667Z,18.03
2019-01-20T17:47:25.530Z,20.00
2019-01-20T17:50:31.850Z,20.20
2019-01-20T17:53:35.777Z,19.30
2019-01-20T17:56:39.698Z,22.63
2019-01-20T17:59:43.510Z,24.13
2019-01-20T18:02:47.615Z,24.17
2019-01-20T18:05:51.622Z,23.07
2019-01-20T18:08:55.506Z,26.00
2019-01-20T18:11:59.425Z,25.30
2019-01-20T18:15:03.829Z,22.80
2019-01-20T18:18:07.897Z,21.10
2019-01-20T18:21:11.839Z,19.37
2019-01-20T18:24:15.750Z,19.67
2019-01-20T18:27:19.585Z,16.60
2019-01-20T18:30:25.205Z,15.73
2019-01-20T18:33:29.191Z,16.80
2019-01-20T18:36:33.043Z,17.43
2019-01-20T18:39:36.865Z,16.70
2019-01-20T18:42:40.798Z,18.20
2019-01-20T18:45:44.698Z,17.23
2019-01-20T18:48:48.554Z,18.83
2019-01-20T18:51:52.457Z,21.20
2019-01-20T18:54:56.315Z,20.90
2019-01-20T18:58:00.132Z,21.97
2019-01-20T19:01:04.025Z,20.90
2019-01-20T19:04:07.877Z,22.20
2019-01-20T19:07:11.731Z,22.07
2019-01-20T19:10:16.494Z,21.67
2019-01-20T19:13:20.349Z,20.87
2019-01-20T19:16:24.185Z,23.50
2019-01-20T19:19:28.105Z,23.50
2019-01-20T19:22:32.063Z,21.13
2019-01-20T19:25:35.940Z,18.67
2019-01-20T19:28:39.857Z,18.10
2019-01-20T19:31:43.682Z,18.30
2019-01-20T19:34:47.531Z,19.27
2019-01-20T19:37:51.442Z,21.77
2019-01-20T19:40:55.401Z,21.80
2019-01-20T19:43:59.245Z,21.30
2019-01-20T19:47:03.098Z,21.00
2019-01-20T19:50:08.185Z,21.07
2019-01-20T19:53:12.106Z,18.87
2019-01-20T19:56:15.994Z,19.30
2019-01-20T19:59:19.898Z,18.77
2019-01-20T20:02:23.761Z,18.90
2019-01-20T20:05:27.763Z,18.50
2019-01-20T20:08:31.663Z,21.67
2019-01-20T20:11:35.513Z,21.13
2019-01-20T20:14:39.361Z,20.67
2019-01-20T20:17:43.278Z,20.37
2019-01-20T20:20:47.286Z,20.67
2019-01-20T20:23:51.121Z,21.27
2019-01-20T20:26:55.039Z,25.50
2019-01-20T20:29:58.884Z,21.67
2019-01-20T20:33:02.795Z,21.43
2019-01-20T20:36:06.641Z,22.27
2019-01-20T20:39:10.820Z,20.90
2019-01-20T20:42:14.757Z,24.93
2019-01-20T20:45:20.327Z,25.53
2019-01-20T20:48:24.204Z,22.40
2019-01-20T20:51:28.035Z,25.17
2019-01-20T20:54:35.433Z,22.53
2019-01-20T20:57:37.738Z,20.30
2019-01-20T21:00:47.176Z,21.27
2019-01-20T21:03:51.026Z,20.80
2019-01-20T21:06:54.903Z,20.57
2019-01-20T21:09:58.730Z,21.00
2019-01-20T21:13:02.652Z,19.83
2019-01-20T21:16:06.550Z,19.83
2019-01-20T21:19:10.390Z,19.93
2019-01-20T21:22:14.321Z,21.67
2019-01-20T21:25:18.220Z,20.57
2019-01-20T21:28:22.057Z,21.23
2019-01-20T21:31:25.907Z,20.57
2019-01-20T21:34:29.761Z,20.00
2019-01-20T21:37:34.413Z,20.77
2019-01-20T21:40:38.304Z,22.70
2019-01-20T21:43:42.278Z,21.00
2019-01-20T21:46:46.184Z,20.87
2019-01-20T21:49:50.052Z,21.27
2019-01-20T21:52:53.931Z,21.07
2019-01-20T21:55:57.854Z,20.70
2019-01-20T21:59:01.709Z,21.77
2019-01-20T22:02:05.684Z,22.63
2019-01-20T22:05:10.336Z,21.83
2019-01-20T22:08:14.177Z,20.37
2019-01-20T22:11:18.006Z,21.43
2019-01-20T22:14:21.816Z,21.60
2019-01-20T22:17:25.689Z,21.27
2019-01-20T22:20:29.553Z,21.63
2019-01-20T22:23:33.395Z,21.93
2019-01-20T22:26:37.329Z,20.03
2019-01-20T22:29:41.179Z,19.43
2019-01-20T22:32:45.149Z,19.87
2019-01-20T22:35:49.041Z,19.23
2019-01-20T22:38:52.898Z,19.10
2019-01-20T22:41:56.852Z,19.27
2019-01-20T22:45:00.683Z,19.13
2019-01-20T22:48:04.684Z,19.43
2019-01-20T22:51:08.513Z,20.33
2019-01-20T22:54:12.391Z,20.33
2019-01-20T22:57:16.223Z,21.93
2019-01-20T23:00:47.953Z,21.40
2019-01-20T23:03:51.796Z,21.20
2019-01-20T23:06:55.645Z,21.17
2019-01-20T23:09:59.491Z,20.63
2019-01-20T23:13:03.336Z,19.30
2019-01-20T23:16:07.310Z,21.90
2019-01-20T23:19:11.142Z,19.90
2019-01-20T23:22:15.119Z,20.73
2019-01-20T23:25:18.940Z,20.83
2019-01-20T23:28:22.947Z,21.27
2019-01-20T23:31:26.915Z,20.53
2019-01-20T23:34:30.768Z,21.50
2019-01-20T23:37:34.748Z,21.87
2019-01-20T23:40:38.650Z,20.77
2019-01-20T23:43:42.490Z,20.47
2019-01-20T23:46:46.367Z,22.33
2019-01-20T23:49:50.180Z,21.57
2019-01-20T23:52:54.124Z,21.20
2019-01-20T23:55:57.988Z,21.67
2019-01-20T23:59:01.801Z,21.27
